Time;durP1;ratioP1;P1;durP2;ratioP2;P2;SDS_P1;SDS_P2;PMS_P1;PMS_P2;Temp;Humidity;BMP_temperature;BMP_pressure;BME280_temperature;BME280_humidity;BME280_pressure;Samples;Min_cycle;Max_cycle;Signal;HPM_P1;HPM_P2
2021/10/26 00:00:52;;;;;;;;;;;11.30;96.50;;;;;;5059207;28;19990;-69
2021/10/26 00:03:17;;;;;;;;;;;11.30;96.60;;;;;;5058655;28;19920;-69
2021/10/26 00:05:43;;;;;;;;;;;11.30;96.60;;;;;;5058630;28;19928;-69
2021/10/26 00:08:08;;;;;;;;;;;11.30;96.50;;;;;;5061438;28;19931;-69
2021/10/26 00:10:34;;;;;;;;;;;11.30;96.60;;;;;;5060970;28;19917;-69
2021/10/26 00:12:59;;;;;;;;;;;11.30;96.60;;;;;;5062410;28;19983;-69
2021/10/26 00:15:25;;;;;;;;;;;11.30;96.60;;;;;;5058308;28;20040;-69
2021/10/26 00:17:51;;;;;;;;;;;11.30;96.60;;;;;;5061633;28;19916;-69
2021/10/26 00:20:16;;;;;;;;;;;11.30;96.60;;;;;;5058573;28;19913;-70
2021/10/26 00:22:41;;;;;;;;;;;11.30;96.60;;;;;;5060843;28;20171;-69
2021/10/26 00:25:07;;;;;;;;;;;11.30;96.60;;;;;;5056112;28;19912;-69
2021/10/26 00:27:33;;;;;;;;;;;11.30;96.60;;;;;;5059770;28;19921;-69
2021/10/26 00:29:58;;;;;;;;;;;11.30;96.70;;;;;;5059358;28;20364;-69
2021/10/26 00:32:24;;;;;;;;;;;11.20;96.70;;;;;;5033545;28;20291;-69
2021/10/26 00:34:49;;;;;;;;;;;11.30;96.70;;;;;;5059264;28;19917;-69
2021/10/26 00:37:15;;;;;;;;;;;11.30;96.70;;;;;;5058960;28;19917;-69
2021/10/26 00:39:41;;;;;;;;;;;11.30;96.70;;;;;;5060722;28;19960;-69
2021/10/26 00:42:07;;;;;;;;;;;11.30;96.80;;;;;;5059728;28;20280;-69
2021/10/26 00:44:32;;;;;;;;;;;11.30;96.80;;;;;;5060066;28;19917;-69
2021/10/26 00:46:58;;;;;;;;;;;11.30;96.80;;;;;;5058894;28;19917;-69
2021/10/26 00:49:23;;;;;;;;;;;11.30;96.80;;;;;;5058013;28;19920;-69
2021/10/26 00:51:49;;;;;;;;;;;11.30;96.80;;;;;;5056634;28;19916;-69
2021/10/26 00:54:15;;;;;;;;;;;11.20;96.80;;;;;;5032454;28;19952;-70
2021/10/26 00:56:40;;;;;;;;;;;11.20;96.90;;;;;;5056583;28;19913;-69
2021/10/26 00:59:06;;;;;;;;;;;11.20;96.90;;;;;;5059288;28;19967;-70
2021/10/26 01:01:31;;;;;;;;;;;11.20;96.90;;;;;;5057901;28;20362;-69
2021/10/26 01:03:57;;;;;;;;;;;11.30;96.90;;;;;;5059365;28;20040;-69
2021/10/26 01:06:22;;;;;;;;;;;11.30;96.90;;;;;;5056969;28;20409;-69
2021/10/26 01:08:48;;;;;;;;;;;11.20;96.90;;;;;;5059035;28;19996;-69
2021/10/26 01:11:14;;;;;;;;;;;11.20;96.90;;;;;;5059672;28;19917;-69
2021/10/26 01:13:40;;;;;;;;;;;11.30;96.90;;;;;;5058348;28;20344;-69
2021/10/26 01:16:05;;;;;;;;;;;11.20;96.90;;;;;;5059562;28;19970;-70
2021/10/26 01:18:31;;;;;;;;;;;11.20;97.00;;;;;;5058339;28;19916;-69
2021/10/26 01:20:56;;;;;;;;;;;11.20;96.90;;;;;;5058369;28;19925;-69
2021/10/26 01:23:23;;;;;;;;;;;11.20;97.00;;;;;;5056519;28;19960;-69
2021/10/26 01:25:48;;;;;;;;;;;11.20;97.10;;;;;;5059784;28;19924;-69
2021/10/26 01:28:14;;;;;;;;;;;11.20;97.10;;;;;;5059182;28;19917;-69
2021/10/26 01:30:40;;;;;;;;;;;11.20;97.10;;;;;;5057645;28;19912;-69
2021/10/26 01:33:05;;;;;;;;;;;11.20;97.10;;;;;;5057332;28;19920;-69
2021/10/26 01:35:31;;;;;;;;;;;11.20;97.10;;;;;;5056747;28;19927;-69
2021/10/26 01:37:57;;;;;;;;;;;11.30;97.10;;;;;;5040665;28;19916;-70
2021/10/26 01:40:22;;;;;;;;;;;11.20;97.10;;;;;;5058113;28;19920;-70
2021/10/26 01:42:48;;;;;;;;;;;11.20;97.10;;;;;;5058712;28;19920;-69
2021/10/26 01:45:14;;;;;;;;;;;11.30;97.20;;;;;;5056378;28;19913;-69
2021/10/26 01:47:40;;;;;;;;;;;11.30;97.30;;;;;;5057882;28;19920;-69
2021/10/26 01:50:07;;;;;;;;;;;11.30;97.20;;;;;;5057350;28;19913;-70
2021/10/26 01:52:32;;;;;;;;;;;11.30;97.40;;;;;;5057261;28;20401;-69
2021/10/26 01:54:57;;;;;;;;;;;11.30;97.30;;;;;;5059145;28;19920;-69
2021/10/26 01:57:26;;;;;;;;;;;11.30;97.40;;;;;;5030033;28;19920;-70
2021/10/26 01:59:52;;;;;;;;;;;11.30;97.40;;;;;;5055640;28;19917;-69
2021/10/26 02:02:18;;;;;;;;;;;11.30;97.40;;;;;;5056765;28;19916;-69
2021/10/26 02:04:43;;;;;;;;;;;11.30;97.40;;;;;;5058765;28;19924;-69
2021/10/26 02:07:09;;;;;;;;;;;11.30;97.40;;;;;;5057107;28;20330;-70
2021/10/26 02:09:35;;;;;;;;;;;11.30;97.40;;;;;;5056292;28;19917;-69
2021/10/26 02:12:00;;;;;;;;;;;11.30;97.40;;;;;;5057682;28;20379;-69
2021/10/26 02:14:26;;;;;;;;;;;11.30;97.40;;;;;;5056615;28;19954;-68
2021/10/26 02:16:51;;;;;;;;;;;11.20;97.40;;;;;;5058070;28;20406;-70
2021/10/26 02:19:17;;;;;;;;;;;11.30;97.50;;;;;;5055379;28;19919;-69
2021/10/26 02:21:42;;;;;;;;;;;11.20;97.60;;;;;;5039874;28;20086;-70
2021/10/26 02:24:08;;;;;;;;;;;11.20;97.60;;;;;;5058211;28;19924;-70
2021/10/26 02:26:34;;;;;;;;;;;11.30;97.60;;;;;;5056932;28;19912;-70
2021/10/26 02:29:00;;;;;;;;;;;11.20;97.60;;;;;;5039299;28;19908;-70
2021/10/26 02:31:25;;;;;;;;;;;11.30;97.80;;;;;;5054691;28;19912;-70
2021/10/26 02:33:51;;;;;;;;;;;11.20;97.80;;;;;;5031772;28;20462;-70
2021/10/26 02:36:16;;;;;;;;;;;11.20;97.80;;;;;;5056233;28;19921;-69
2021/10/26 02:38:42;;;;;;;;;;;11.20;97.80;;;;;;5057969;28;19913;-70
2021/10/26 02:41:07;;;;;;;;;;;11.20;97.80;;;;;;5057027;28;19974;-70
2021/10/26 02:43:33;;;;;;;;;;;11.20;97.80;;;;;;5055990;28;20448;-69
2021/10/26 02:46:00;;;;;;;;;;;11.20;97.80;;;;;;5056583;28;19924;-69
2021/10/26 02:48:25;;;;;;;;;;;11.20;97.90;;;;;;5053075;28;19913;-70
2021/10/26 02:50:51;;;;;;;;;;;11.20;97.90;;;;;;5058143;28;19916;-69
2021/10/26 02:53:16;;;;;;;;;;;11.20;97.90;;;;;;5053981;28;20665;-69
2021/10/26 02:55:41;;;;;;;;;;;11.20;97.90;;;;;;5056364;28;19978;-71
2021/10/26 02:58:07;;;;;;;;;;;11.20;97.90;;;;;;5057238;28;19919;-71
2021/10/26 03:00:32;;;;;;;;;;;11.20;98.00;;;;;;5057220;28;19954;-71
2021/10/26 03:02:58;;;;;;;;;;;11.30;98.00;;;;;;5055898;28;20339;-71
2021/10/26 03:05:23;;;;;;;;;;;11.20;97.90;;;;;;5055592;28;19921;-72
2021/10/26 03:07:49;;;;;;;;;;;11.30;98.00;;;;;;5058329;28;19923;-71
2021/10/26 03:10:15;;;;;;;;;;;11.20;98.00;;;;;;5057167;28;19920;-71
2021/10/26 03:12:40;;;;;;;;;;;11.20;98.00;;;;;;5058392;28;20375;-71
2021/10/26 03:15:07;;;;;;;;;;;11.20;98.10;;;;;;5058050;28;19917;-71
2021/10/26 03:17:32;;;;;;;;;;;11.30;98.10;;;;;;5057398;28;20007;-71
2021/10/26 03:19:58;;;;;;;;;;;11.20;98.10;;;;;;5053890;28;20392;-71
2021/10/26 03:22:23;;;;;;;;;;;11.20;98.30;;;;;;5056655;28;19920;-72
2021/10/26 03:24:49;;;;;;;;;;;11.20;98.10;;;;;;5055635;28;19912;-72
2021/10/26 03:27:14;;;;;;;;;;;11.30;98.10;;;;;;5056869;28;19951;-71
2021/10/26 03:29:40;;;;;;;;;;;11.20;98.20;;;;;;5056566;28;19966;-71
2021/10/26 03:32:06;;;;;;;;;;;11.30;98.20;;;;;;5056165;28;19917;-71
2021/10/26 03:34:31;;;;;;;;;;;11.30;98.30;;;;;;5056024;28;19920;-71
2021/10/26 03:36:57;;;;;;;;;;;11.20;98.20;;;;;;5056147;28;19924;-71
2021/10/26 03:39:23;;;;;;;;;;;11.30;98.30;;;;;;5055604;28;20331;-71
2021/10/26 03:41:48;;;;;;;;;;;11.30;98.30;;;;;;5056204;28;20362;-72
2021/10/26 03:44:13;;;;;;;;;;;11.30;98.40;;;;;;5055054;28;20294;-71
2021/10/26 03:46:39;;;;;;;;;;;11.30;98.30;;;;;;5057326;28;20393;-71
2021/10/26 03:49:04;;;;;;;;;;;11.20;98.40;;;;;;5056294;28;20299;-71
2021/10/26 03:51:30;;;;;;;;;;;11.20;98.40;;;;;;5055729;28;20160;-71
2021/10/26 03:53:59;;;;;;;;;;;11.30;98.70;;;;;;5055500;28;19952;-71
2021/10/26 03:56:25;;;;;;;;;;;11.30;98.50;;;;;;5055665;28;19925;-71
2021/10/26 03:58:50;;;;;;;;;;;11.30;98.50;;;;;;5057816;28;19908;-71
2021/10/26 04:01:16;;;;;;;;;;;11.30;98.60;;;;;;5055629;28;19986;-71
2021/10/26 04:03:41;;;;;;;;;;;11.30;98.50;;;;;;5054501;28;19913;-71
2021/10/26 04:06:10;;;;;;;;;;;11.30;98.50;;;;;;5056961;28;19913;-71
2021/10/26 04:08:48;;;;;;;;;;;11.30;98.60;;;;;;5059469;28;19946;-71
2021/10/26 04:11:24;;;;;;;;;;;11.30;98.60;;;;;;5032158;28;20370;-71
2021/10/26 04:13:50;;;;;;;;;;;11.30;98.70;;;;;;5058178;28;19928;-71
2021/10/26 04:16:16;;;;;;;;;;;11.30;98.60;;;;;;5059221;28;19921;-71
2021/10/26 04:18:41;;;;;;;;;;;11.20;98.70;;;;;;5059263;28;19917;-71
2021/10/26 04:21:07;;;;;;;;;;;11.20;98.70;;;;;;5057093;28;19999;-72
2021/10/26 04:23:34;;;;;;;;;;;11.30;98.70;;;;;;5056548;28;19948;-72
2021/10/26 04:26:00;;;;;;;;;;;11.20;98.70;;;;;;5058282;28;20691;-71
2021/10/26 04:28:25;;;;;;;;;;;11.20;98.70;;;;;;5061220;28;19913;-72
2021/10/26 04:30:51;;;;;;;;;;;11.20;98.70;;;;;;5058615;28;19921;-72
2021/10/26 04:33:16;;;;;;;;;;;11.20;98.90;;;;;;5060242;28;19925;-71
2021/10/26 04:35:42;;;;;;;;;;;11.20;99.00;;;;;;5060398;28;19921;-70
2021/10/26 04:38:07;;;;;;;;;;;11.20;99.00;;;;;;5061818;28;19913;-69
2021/10/26 04:40:33;;;;;;;;;;;11.20;99.00;;;;;;5060237;28;19982;-75
2021/10/26 04:42:59;;;;;;;;;;;11.30;99.00;;;;;;5056150;28;19978;-73
2021/10/26 04:45:24;;;;;;;;;;;11.30;99.00;;;;;;5055204;28;19940;-75
2021/10/26 04:47:50;;;;;;;;;;;11.20;99.00;;;;;;5054664;28;19936;-73
2021/10/26 04:50:16;;;;;;;;;;;11.30;99.10;;;;;;5056539;28;19917;-73
2021/10/26 04:52:42;;;;;;;;;;;11.30;99.00;;;;;;5052149;28;19920;-73
2021/10/26 04:55:07;;;;;;;;;;;11.30;99.10;;;;;;5060164;28;19923;-73
2021/10/26 04:57:33;;;;;;;;;;;11.30;99.10;;;;;;5058332;28;20432;-73
2021/10/26 04:59:58;;;;;;;;;;;11.30;99.10;;;;;;5042161;28;20394;-73
2021/10/26 05:02:24;;;;;;;;;;;11.30;99.10;;;;;;5041269;28;19912;-72
2021/10/26 05:04:49;;;;;;;;;;;11.30;99.30;;;;;;5059693;28;19921;-72
2021/10/26 05:07:16;;;;;;;;;;;11.30;99.40;;;;;;5058551;28;19940;-72
2021/10/26 05:09:42;;;;;;;;;;;11.30;99.40;;;;;;5040297;28;19951;-72
2021/10/26 05:12:07;;;;;;;;;;;11.30;99.50;;;;;;5058125;28;19956;-72
2021/10/26 05:14:33;;;;;;;;;;;11.30;99.50;;;;;;5058368;28;19921;-67
2021/10/26 05:16:58;;;;;;;;;;;11.20;99.50;;;;;;5057521;28;19917;-74
2021/10/26 05:19:26;;;;;;;;;;;11.20;99.50;;;;;;5054682;28;20473;-72
2021/10/26 05:21:52;;;;;;;;;;;11.20;99.60;;;;;;5081449;22;19955;-67
2021/10/26 05:24:18;;;;;;;;;;;11.20;99.80;;;;;;5054900;28;20441;-69
2021/10/26 05:26:43;;;;;;;;;;;11.20;99.70;;;;;;5053717;28;20083;-69
2021/10/26 05:29:09;;;;;;;;;;;11.20;99.80;;;;;;5057900;28;19920;-68
2021/10/26 05:31:35;;;;;;;;;;;11.20;99.90;;;;;;5056673;28;20105;-69
2021/10/26 05:34:00;;;;;;;;;;;11.30;99.90;;;;;;5057811;28;19916;-69
2021/10/26 05:36:26;;;;;;;;;;;11.20;99.90;;;;;;5055962;28;19920;-69
2021/10/26 05:38:51;;;;;;;;;;;11.30;99.90;;;;;;5057926;28;19940;-69
2021/10/26 05:41:17;;;;;;;;;;;11.30;99.90;;;;;;5055182;28;19920;-69
2021/10/26 05:43:42;;;;;;;;;;;11.30;99.90;;;;;;5058733;28;19957;-69
2021/10/26 05:46:08;;;;;;;;;;;11.40;99.90;;;;;;5038854;28;19917;-69
2021/10/26 05:48:34;;;;;;;;;;;11.40;99.90;;;;;;5057764;28;19912;-69
2021/10/26 05:51:04;;;;;;;;;;;11.40;99.90;;;;;;5057645;28;20006;-69
2021/10/26 05:53:29;;;;;;;;;;;11.40;99.90;;;;;;5058373;28;19986;-68
2021/10/26 05:55:55;;;;;;;;;;;11.40;99.90;;;;;;5058305;28;20500;-69
2021/10/26 05:58:20;;;;;;;;;;;11.40;99.90;;;;;;5054999;28;19943;-69
2021/10/26 06:00:46;;;;;;;;;;;11.40;99.90;;;;;;5053157;28;20420;-66
2021/10/26 06:03:11;;;;;;;;;;;11.40;99.90;;;;;;5036081;28;19928;-68
2021/10/26 06:05:38;;;;;;;;;;;11.40;99.90;;;;;;5050835;28;20605;-67
2021/10/26 06:08:05;;;;;;;;;;;11.40;99.90;;;;;;5019713;28;19999;-68
2021/10/26 06:10:32;;;;;;;;;;;11.40;99.90;;;;;;5038966;28;20164;-68
2021/10/26 06:13:03;;;;;;;;;;;11.40;99.90;;;;;;5057304;28;19919;-68
2021/10/26 06:15:29;;;;;;;;;;;11.40;99.90;;;;;;5056731;28;19921;-68
2021/10/26 06:17:54;;;;;;;;;;;11.40;99.90;;;;;;5054963;28;19928;-69
2021/10/26 06:20:20;;;;;;;;;;;11.40;99.90;;;;;;5054556;28;19919;-68
2021/10/26 06:22:45;;;;;;;;;;;11.40;99.90;;;;;;5056433;28;19925;-68
2021/10/26 06:25:11;;;;;;;;;;;11.40;99.90;;;;;;5057525;28;19919;-68
2021/10/26 06:27:37;;;;;;;;;;;11.40;99.90;;;;;;5056964;28;20118;-68
2021/10/26 06:30:02;;;;;;;;;;;11.40;99.90;;;;;;5058514;28;19923;-69
2021/10/26 06:32:28;;;;;;;;;;;11.40;99.90;;;;;;5058588;28;19917;-70
2021/10/26 06:34:53;;;;;;;;;;;11.50;99.90;;;;;;5060415;28;19917;-70
2021/10/26 06:37:19;;;;;;;;;;;11.50;99.90;;;;;;5025809;28;19917;-67
2021/10/26 06:39:44;;;;;;;;;;;11.50;99.90;;;;;;5040094;28;20394;-67
2021/10/26 06:42:10;;;;;;;;;;;11.50;99.90;;;;;;5036531;28;19921;-67
2021/10/26 06:44:36;;;;;;;;;;;11.50;99.90;;;;;;5050644;28;20363;-68
2021/10/26 06:47:01;;;;;;;;;;;11.50;99.90;;;;;;5053469;28;19932;-69
2021/10/26 06:49:27;;;;;;;;;;;11.40;99.90;;;;;;5056401;28;20371;-68
2021/10/26 06:51:53;;;;;;;;;;;11.40;99.90;;;;;;5023175;28;20480;-69
2021/10/26 06:54:18;;;;;;;;;;;11.40;99.90;;;;;;5056276;28;19909;-66
2021/10/26 06:56:44;;;;;;;;;;;11.40;99.90;;;;;;5038486;28;20359;-68
2021/10/26 06:59:09;;;;;;;;;;;11.40;99.90;;;;;;5022246;28;20390;-68
2021/10/26 07:01:35;;;;;;;;;;;11.40;99.90;;;;;;5054034;28;19916;-67
2021/10/26 07:04:00;;;;;;;;;;;11.40;99.90;;;;;;5056591;28;20292;-68
2021/10/26 07:06:26;;;;;;;;;;;11.40;99.90;;;;;;5038864;28;20302;-69
2021/10/26 07:08:51;;;;;;;;;;;11.40;99.90;;;;;;5038978;28;20505;-65
2021/10/26 07:11:17;;;;;;;;;;;11.40;99.90;;;;;;5054549;28;19935;-69
2021/10/26 07:13:42;;;;;;;;;;;11.40;99.90;;;;;;5039327;28;19912;-71
2021/10/26 07:16:08;;;;;;;;;;;11.40;99.90;;;;;;5054361;28;20376;-70
2021/10/26 07:18:34;;;;;;;;;;;11.40;99.90;;;;;;5054489;28;20027;-70
2021/10/26 07:20:59;;;;;;;;;;;11.40;99.90;;;;;;5034829;28;19913;-70
2021/10/26 07:23:25;;;;;;;;;;;11.50;99.90;;;;;;5055277;28;20294;-70
2021/10/26 07:25:51;;;;;;;;;;;11.50;99.90;;;;;;5053456;28;19931;-72
2021/10/26 07:28:17;;;;;;;;;;;11.50;99.90;;;;;;5035557;28;20032;-74
2021/10/26 07:30:45;;;;;;;;;;;11.60;99.90;;;;;;5053332;28;19917;-73
2021/10/26 07:33:20;;;;;;;;;;;11.60;99.90;;;;;;5055829;28;19917;-68
2021/10/26 07:35:47;;;;;;;;;;;11.60;99.90;;;;;;5051116;28;19920;-69
2021/10/26 07:38:16;;;;;;;;;;;11.50;99.90;;;;;;5054314;28;19917;-68
2021/10/26 07:40:42;;;;;;;;;;;11.50;99.90;;;;;;5056764;28;19932;-70
2021/10/26 07:43:07;;;;;;;;;;;11.50;99.90;;;;;;5058216;28;19915;-70
2021/10/26 07:45:33;;;;;;;;;;;11.60;99.90;;;;;;5042222;28;19935;-70
2021/10/26 07:47:59;;;;;;;;;;;11.60;99.90;;;;;;5027774;28;20017;-70
2021/10/26 07:50:24;;;;;;;;;;;11.60;99.90;;;;;;5058761;28;20508;-69
2021/10/26 07:52:50;;;;;;;;;;;11.70;99.90;;;;;;5057257;28;20322;-70
2021/10/26 07:55:15;;;;;;;;;;;11.70;99.90;;;;;;5058362;28;19924;-70
2021/10/26 07:57:41;;;;;;;;;;;11.70;99.90;;;;;;5058824;28;19916;-69
2021/10/26 08:00:07;;;;;;;;;;;11.80;99.90;;;;;;5043596;28;20017;-70
2021/10/26 08:02:33;;;;;;;;;;;11.80;99.90;;;;;;5058732;28;20024;-70
2021/10/26 08:04:58;;;;;;;;;;;11.90;99.90;;;;;;5059341;28;20360;-70
2021/10/26 08:07:24;;;;;;;;;;;11.90;99.90;;;;;;5039005;28;19912;-71
2021/10/26 08:09:50;;;;;;;;;;;12.00;99.90;;;;;;5051802;28;19917;-72
2021/10/26 08:12:17;;;;;;;;;;;12.10;99.90;;;;;;5058279;28;20014;-72
2021/10/26 08:14:44;;;;;;;;;;;12.10;99.90;;;;;;5059996;28;19966;-72
2021/10/26 08:17:09;;;;;;;;;;;12.20;99.90;;;;;;5057777;28;19921;-70
2021/10/26 08:19:35;;;;;;;;;;;12.20;99.90;;;;;;5059640;28;20363;-73
2021/10/26 08:22:03;;;;;;;;;;;12.30;99.90;;;;;;5057931;28;19916;-71
2021/10/26 08:24:31;;;;;;;;;;;12.30;99.90;;;;;;5055938;28;19916;-71
2021/10/26 08:27:01;;;;;;;;;;;12.40;99.90;;;;;;5057685;28;19961;-69
2021/10/26 08:34:46;;;;;;;;;;;12.40;99.90;;;;;;5055264;28;20753;-69
2021/10/26 08:37:12;;;;;;;;;;;12.50;99.80;;;;;;5057190;28;20202;-69
2021/10/26 08:39:40;;;;;;;;;;;12.40;99.70;;;;;;5039770;28;19916;-69
2021/10/26 08:42:08;;;;;;;;;;;12.50;99.70;;;;;;5055942;28;19913;-69
2021/10/26 08:44:34;;;;;;;;;;;12.50;99.70;;;;;;5041771;28;20532;-69
2021/10/26 08:47:00;;;;;;;;;;;12.60;99.70;;;;;;5025101;28;19913;-69
2021/10/26 08:49:25;;;;;;;;;;;12.60;99.60;;;;;;5057960;28;19919;-69
2021/10/26 08:51:52;;;;;;;;;;;12.60;99.60;;;;;;5054985;28;19975;-69
2021/10/26 08:54:19;;;;;;;;;;;12.60;99.50;;;;;;5056843;28;19916;-68
2021/10/26 08:56:45;;;;;;;;;;;12.60;99.50;;;;;;5025049;28;19913;-68
2021/10/26 08:59:15;;;;;;;;;;;12.60;99.40;;;;;;5057897;28;19917;-69
2021/10/26 09:01:43;;;;;;;;;;;12.60;99.40;;;;;;5056620;28;20046;-68
2021/10/26 09:04:09;;;;;;;;;;;12.50;99.50;;;;;;5041639;28;19912;-70
2021/10/26 09:06:55;;;;;;;;;;;12.50;99.50;;;;;;5041176;28;20477;-69
2021/10/26 09:09:23;;;;;;;;;;;12.50;99.60;;;;;;5058702;28;19908;-69
2021/10/26 09:17:45;;;;;;;;;;;12.60;99.70;;;;;;5059125;28;19920;-69
2021/10/26 09:20:14;;;;;;;;;;;12.60;99.60;;;;;;5041911;28;20167;-69
2021/10/26 09:22:46;;;;;;;;;;;12.70;99.60;;;;;;5057395;28;19924;-69
2021/10/26 09:25:13;;;;;;;;;;;12.80;99.50;;;;;;5055620;28;19935;-69
2021/10/26 09:27:39;;;;;;;;;;;12.90;99.30;;;;;;5056104;28;20428;-69
2021/10/26 09:30:07;;;;;;;;;;;13.00;99.30;;;;;;5057418;28;19912;-70
2021/10/26 09:32:36;;;;;;;;;;;13.00;99.20;;;;;;5056894;28;19916;-69
2021/10/26 09:35:03;;;;;;;;;;;13.20;99.20;;;;;;5056873;28;19931;-69
2021/10/26 09:37:36;;;;;;;;;;;13.30;99.00;;;;;;5038535;28;19963;-69
2021/10/26 09:40:03;;;;;;;;;;;13.30;98.90;;;;;;5025292;28;20031;-69
2021/10/26 09:42:37;;;;;;;;;;;13.40;98.80;;;;;;5054276;28;20357;-68
2021/10/26 09:45:03;;;;;;;;;;;13.40;98.80;;;;;;5056398;28;19921;-70
2021/10/26 09:47:30;;;;;;;;;;;13.50;98.70;;;;;;5056574;28;19916;-70
2021/10/26 09:49:59;;;;;;;;;;;13.60;98.60;;;;;;5041622;28;19916;-70
2021/10/26 09:52:43;;;;;;;;;;;13.60;98.60;;;;;;5023464;28;19916;-69
2021/10/26 09:55:15;;;;;;;;;;;13.70;98.40;;;;;;5056446;28;20326;-69
2021/10/26 09:57:45;;;;;;;;;;;13.80;98.00;;;;;;5056688;28;19935;-68
2021/10/26 10:00:12;;;;;;;;;;;14.00;97.80;;;;;;5055869;28;20417;-70
2021/10/26 10:02:38;;;;;;;;;;;14.10;97.40;;;;;;5055703;28;20209;-69
2021/10/26 10:05:04;;;;;;;;;;;14.10;97.40;;;;;;5040900;28;19935;-69
2021/10/26 10:07:31;;;;;;;;;;;14.20;97.20;;;;;;5037915;28;20258;-69
2021/10/26 10:10:03;;;;;;;;;;;14.20;97.10;;;;;;5057590;28;19923;-67
2021/10/26 10:12:29;;;;;;;;;;;14.20;97.10;;;;;;5055591;28;19921;-69
2021/10/26 10:14:55;;;;;;;;;;;14.20;96.90;;;;;;5037549;28;19927;-68
2021/10/26 10:17:21;;;;;;;;;;;14.20;97.00;;;;;;5056705;28;19921;-67
2021/10/26 10:19:48;;;;;;;;;;;14.20;96.80;;;;;;5052289;28;20286;-68
2021/10/26 10:22:15;;;;;;;;;;;14.20;96.90;;;;;;5038583;28;19974;-68
2021/10/26 10:24:41;;;;;;;;;;;14.20;96.90;;;;;;5048583;28;20004;-68
2021/10/26 10:27:07;;;;;;;;;;;14.30;96.80;;;;;;5055640;28;20612;-67
2021/10/26 10:29:34;;;;;;;;;;;14.30;96.60;;;;;;5047033;28;20645;-67
2021/10/26 10:32:00;;;;;;;;;;;14.30;96.60;;;;;;5056499;28;19909;-67
2021/10/26 10:34:26;;;;;;;;;;;14.30;96.80;;;;;;5035063;28;19940;-69
2021/10/26 10:36:53;;;;;;;;;;;14.30;96.80;;;;;;5056154;28;20353;-70
2021/10/26 10:39:23;;;;;;;;;;;14.30;96.90;;;;;;5055328;28;19912;-70
2021/10/26 10:41:49;;;;;;;;;;;14.40;96.70;;;;;;5056000;28;20432;-70
2021/10/26 10:44:20;;;;;;;;;;;14.50;96.50;;;;;;5022823;28;19913;-69
2021/10/26 10:46:47;;;;;;;;;;;14.60;96.40;;;;;;5038198;28;19913;-70
2021/10/26 10:49:22;;;;;;;;;;;14.60;96.10;;;;;;5038856;28;19928;-70
2021/10/26 10:52:00;;;;;;;;;;;14.60;96.00;;;;;;5057482;28;20279;-69
2021/10/26 10:54:35;;;;;;;;;;;14.60;95.90;;;;;;5056188;28;20386;-69
2021/10/26 10:57:16;;;;;;;;;;;14.60;96.10;;;;;;5037512;28;19944;-70
2021/10/26 10:59:42;;;;;;;;;;;14.50;96.10;;;;;;5039246;28;19960;-70
2021/10/26 11:02:30;;;;;;;;;;;14.50;96.00;;;;;;5052792;28;19917;-70
2021/10/26 11:04:56;;;;;;;;;;;14.50;96.20;;;;;;5023574;28;20000;-68
2021/10/26 11:07:40;;;;;;;;;;;14.50;96.30;;;;;;5036524;28;20059;-69
2021/10/26 11:10:06;;;;;;;;;;;14.60;96.40;;;;;;5054533;28;19913;-70
2021/10/26 11:12:33;;;;;;;;;;;14.70;96.30;;;;;;5055036;28;19928;-70
2021/10/26 11:14:59;;;;;;;;;;;14.60;96.50;;;;;;5054818;28;20075;-71
2021/10/26 11:17:39;;;;;;;;;;;14.60;96.10;;;;;;5037443;28;19932;-70
2021/10/26 11:20:04;;;;;;;;;;;14.70;95.80;;;;;;5056607;28;20367;-70
2021/10/26 11:22:45;;;;;;;;;;;14.70;95.30;;;;;;5052530;28;19920;-77
2021/10/26 11:25:17;;;;;;;;;;;14.70;94.70;;;;;;5056575;28;19912;-77
2021/10/26 11:27:43;;;;;;;;;;;14.80;94.80;;;;;;5054288;28;20225;-77
2021/10/26 11:30:27;;;;;;;;;;;14.90;94.50;;;;;;5054319;28;19912;-77
2021/10/26 11:33:11;;;;;;;;;;;14.90;94.50;;;;;;5030226;28;19924;-75
2021/10/26 11:35:39;;;;;;;;;;;15.10;94.60;;;;;;5049154;28;19963;-73
2021/10/26 11:38:06;;;;;;;;;;;15.20;93.90;;;;;;5035526;28;19966;-78
2021/10/26 11:40:32;;;;;;;;;;;15.40;93.50;;;;;;5052126;28;19916;-78
2021/10/26 11:42:59;;;;;;;;;;;15.50;93.10;;;;;;5054618;28;19917;-76
2021/10/26 11:45:25;;;;;;;;;;;15.60;93.20;;;;;;5037103;28;19940;-74
2021/10/26 11:47:50;;;;;;;;;;;15.80;93.40;;;;;;5050299;28;19912;-75
2021/10/26 11:50:19;;;;;;;;;;;15.90;93.00;;;;;;5054419;28;19917;-75
2021/10/26 11:52:44;;;;;;;;;;;16.00;92.50;;;;;;5055897;28;19935;-75
2021/10/26 11:55:10;;;;;;;;;;;16.00;92.20;;;;;;5056054;28;19913;-74
2021/10/26 11:57:35;;;;;;;;;;;16.00;92.20;;;;;;5055746;28;19921;-73
2021/10/26 12:00:05;;;;;;;;;;;16.00;91.80;;;;;;5056234;28;20006;-76
2021/10/26 12:02:33;;;;;;;;;;;16.00;91.60;;;;;;5055868;28;19913;-77
2021/10/26 12:05:00;;;;;;;;;;;15.90;91.80;;;;;;5053875;28;19962;-76
2021/10/26 12:07:27;;;;;;;;;;;15.80;91.40;;;;;;5054231;28;19921;-77
2021/10/26 12:09:54;;;;;;;;;;;15.70;91.40;;;;;;5023182;28;20007;-77
2021/10/26 12:12:22;;;;;;;;;;;15.60;91.90;;;;;;5038561;28;20349;-76
2021/10/26 12:14:49;;;;;;;;;;;15.50;92.10;;;;;;5056055;28;19970;-77
2021/10/26 12:17:16;;;;;;;;;;;15.50;92.20;;;;;;5021122;28;20570;-76
2021/10/26 12:19:57;;;;;;;;;;;15.50;92.30;;;;;;5053405;28;20280;-76
2021/10/26 12:22:28;;;;;;;;;;;15.50;92.20;;;;;;5038514;28;20015;-75
2021/10/26 12:24:59;;;;;;;;;;;15.50;92.00;;;;;;5055643;28;19995;-77
2021/10/26 12:27:26;;;;;;;;;;;15.50;92.00;;;;;;5057572;28;20349;-74
2021/10/26 12:29:53;;;;;;;;;;;15.50;91.70;;;;;;5041789;28;20303;-74
2021/10/26 12:32:21;;;;;;;;;;;15.50;91.80;;;;;;5056483;28;22436;-76
2021/10/26 12:34:47;;;;;;;;;;;15.60;91.70;;;;;;5057014;28;19919;-75
2021/10/26 12:37:17;;;;;;;;;;;15.60;91.60;;;;;;5039080;28;20291;-79
2021/10/26 12:39:52;;;;;;;;;;;15.70;91.50;;;;;;5040372;28;20332;-78
2021/10/26 12:42:27;;;;;;;;;;;15.70;91.20;;;;;;5025428;28;19917;-78
2021/10/26 12:44:53;;;;;;;;;;;15.70;91.20;;;;;;5054999;28;19923;-78
2021/10/26 12:47:19;;;;;;;;;;;15.80;91.60;;;;;;5009380;28;19923;-79
2021/10/26 12:49:57;;;;;;;;;;;15.80;91.50;;;;;;5054630;28;20295;-83
2021/10/26 12:52:28;;;;;;;;;;;15.90;91.30;;;;;;5037510;28;20643;-82
2021/10/26 12:54:56;;;;;;;;;;;15.90;91.40;;;;;;5059715;28;19912;-82
2021/10/26 12:57:35;;;;;;;;;;;16.00;91.20;;;;;;5059900;28;19912;-80
2021/10/26 13:00:23;;;;;;;;;;;15.90;90.90;;;;;;5057246;28;19912;-75
2021/10/26 13:02:48;;;;;;;;;;;15.80;91.10;;;;;;5040596;28;19924;-74
2021/10/26 13:05:15;;;;;;;;;;;15.80;91.30;;;;;;5058524;28;19924;-74
2021/10/26 13:07:40;;;;;;;;;;;15.70;91.20;;;;;;5056635;28;19912;-81
2021/10/26 13:10:08;;;;;;;;;;;15.70;91.40;;;;;;5055438;28;19919;-74
2021/10/26 13:12:35;;;;;;;;;;;15.70;91.30;;;;;;5037499;28;19939;-74
2021/10/26 13:15:12;;;;;;;;;;;15.80;91.30;;;;;;5057669;28;19940;-73
2021/10/26 13:17:42;;;;;;;;;;;15.80;91.30;;;;;;5058693;28;19916;-77
2021/10/26 13:20:11;;;;;;;;;;;15.70;91.20;;;;;;5025259;28;19912;-77
2021/10/26 13:22:37;;;;;;;;;;;15.70;91.00;;;;;;5053462;28;20583;-76
2021/10/26 13:25:03;;;;;;;;;;;15.70;90.80;;;;;;5059509;28;20333;-77
2021/10/26 13:27:28;;;;;;;;;;;15.70;91.10;;;;;;5025172;28;19912;-76
2021/10/26 13:29:54;;;;;;;;;;;15.70;91.00;;;;;;5055311;28;20417;-76
2021/10/26 13:32:20;;;;;;;;;;;15.70;90.80;;;;;;5024031;28;19996;-77
2021/10/26 13:34:49;;;;;;;;;;;15.70;90.80;;;;;;5058087;28;19951;-76
2021/10/26 13:37:15;;;;;;;;;;;15.60;90.70;;;;;;5022768;28;19919;-76
2021/10/26 13:39:42;;;;;;;;;;;15.60;90.90;;;;;;5055371;28;19913;-74
2021/10/26 13:42:09;;;;;;;;;;;15.60;91.10;;;;;;5052512;28;20006;-74
2021/10/26 13:44:34;;;;;;;;;;;15.60;91.00;;;;;;5059088;28;19917;-73
2021/10/26 13:47:00;;;;;;;;;;;15.50;91.10;;;;;;5058334;28;20331;-75
2021/10/26 13:49:25;;;;;;;;;;;15.50;91.20;;;;;;5055527;28;19950;-75
2021/10/26 13:51:51;;;;;;;;;;;15.50;91.20;;;;;;5056625;28;19916;-74
2021/10/26 13:54:18;;;;;;;;;;;15.40;91.20;;;;;;5035515;28;19920;-74
2021/10/26 13:56:44;;;;;;;;;;;15.40;91.50;;;;;;5055064;28;20279;-76
2021/10/26 13:59:10;;;;;;;;;;;15.30;91.30;;;;;;5057487;28;19913;-76
2021/10/26 14:01:35;;;;;;;;;;;15.30;91.30;;;;;;5057915;28;19916;-77
2021/10/26 14:04:00;;;;;;;;;;;15.30;91.20;;;;;;5054365;28;19913;-78
2021/10/26 14:06:26;;;;;;;;;;;15.30;91.30;;;;;;5056153;28;20074;-80
2021/10/26 14:08:55;;;;;;;;;;;15.20;91.10;;;;;;5022283;28;19924;-79
2021/10/26 14:11:20;;;;;;;;;;;15.20;91.30;;;;;;5057151;28;19917;-78
2021/10/26 14:13:45;;;;;;;;;;;15.20;91.20;;;;;;5058622;28;20394;-75
2021/10/26 14:16:12;;;;;;;;;;;15.20;91.40;;;;;;5056357;28;19920;-79
2021/10/26 14:18:41;;;;;;;;;;;15.20;91.30;;;;;;5056426;28;19917;-72
2021/10/26 14:21:07;;;;;;;;;;;15.20;90.80;;;;;;5021535;28;20227;-77
2021/10/26 14:23:34;;;;;;;;;;;15.20;90.80;;;;;;5037642;28;19970;-80
2021/10/26 14:26:00;;;;;;;;;;;15.20;90.80;;;;;;5024586;28;19920;-78